Weather observations for the past three days for
Natchitoches, Natchitoches Regional Airport
Imperial (Metric)
Date Time (cdt) Wind (mph) Vis. (mi.) Weather Sky Cond. Temperature (ºF) Relative Humidity Wind Chill (°F) Heat Index (°F) Pressure Precipitation (in)
Air Dwpt 6 hour altimeter (in) sea level (mb) 1 hr 3 hr 6 hr
Max. Min.
03 00:55 Calm 10.00 Fair CLR 50.9 50.9 70.7 50.7 100% 30.13 0.0
03 00:35 Calm 10.00 Fair CLR 51.3 51.3 100% 30.14 0.0
03 00:15 Calm 10.00 Fair CLR 51.8 51.8 100% 30.13 0.0
02 23:55 Calm 10.00 Fair CLR 51.4 51.4 100% 30.13 0.0
02 23:35 Calm 10.00 Fair CLR 52.5 52.5 100% 30.14 0.0
02 23:15 Calm 10.00 Fair CLR 52.7 52.7 100% 30.13 0.0
02 22:55 Calm 10.00 Fair CLR 52.7 52.7 100% 30.13 0.0
02 22:35 Calm 10.00 Fair CLR 52.7 52.3 99% 30.13 0.0
02 22:15 Calm 10.00 Fair CLR 53.2 52.3 97% 30.13 0.0
02 21:55 Calm 10.00 Fair CLR 54.5 53.8 97% 30.12 0.0
02 21:35 Calm 10.00 Fair CLR 54.7 53.8 97% 30.11 0.0
02 21:15 Calm 10.00 Fair CLR 55.4 53.6 94% 30.11 0.0
02 20:55 Calm 10.00 Fair CLR 58.6 52.3 80% 30.1 0.0
02 20:35 Calm 10.00 Fair CLR 57.7 51.8 81% 30.1 0.0
02 20:15 Calm 10.00 Fair CLR 61.2 50.4 68% 30.09 0.0
02 19:55 Calm 10.00 Fair CLR 62.4 51.6 68% 30.09 0.0
02 19:35 Calm 10.00 Fair CLR 67.5 48.9 52% 30.08 0.0
02 19:15 Calm 10.00 Fair CLR 69.4 45.7 43% 30.08 0.0
02 18:55 Calm 10.00 Fair CLR 70.9 45.5 74.3 69.8 40% 30.08 0.0
02 18:35 N 7 10.00 Fair CLR 71.8 43.7 37% 30.07 0.0
02 18:15 NW 8 10.00 Fair CLR 72.5 44.2 36% 30.07 0.0
02 17:55 N 9 10.00 Fair CLR 73 43.5 35% 30.07 0.0
02 17:35 N 9 10.00 Fair CLR 72.1 42.3 34% 30.07 0.0
02 17:15 NW 12 G 17 10.00 Fair CLR 73.6 43.5 34% 30.06 0.0
02 16:55 N 10 G 18 10.00 Fair CLR 73.6 42.8 33% 30.07 0.0
02 16:35 N 8 10.00 Fair CLR 73.8 43.5 34% 30.07 0.0
02 16:15 NE 8 10.00 Fair CLR 74.3 43.9 34% 30.07 0.0
02 15:55 NE 7 10.00 Fair CLR 73.6 42.6 33% 30.08 0.0
02 15:35 NE 8 10.00 Fair CLR 73 41.4 32% 30.09 0.0
02 15:15 Calm 10.00 Fair CLR 73.4 43.7 35% 30.09 0.0
02 14:55 N 9 10.00 Fair CLR 72.7 43 34% 30.1 0.0
02 14:35 N 10 10.00 Fair CLR 71.8 42.3 35% 30.11 0.0
02 14:15 N 8 10.00 Fair CLR 72.1 43.3 36% 30.11 0.0
02 13:55 N 7 10.00 Fair CLR 71.6 43.3 36% 30.12 0.0
02 13:35 Calm 10.00 Fair CLR 70.7 42.1 36% 30.12 0.0
02 13:15 NE 8 10.00 Fair CLR 70.7 41.9 35% 30.13 0.0
02 12:55 NE 12 10.00 Fair CLR 70.2 40.6 70.5 52.9 34% 30.14 0.0
02 12:35 NE 6 10.00 Fair CLR 69.8 42.3 37% 30.14 0.0
02 12:15 NE 7 10.00 Fair CLR 68.9 41.5 37% 30.15 0.0
02 11:55 N 10 10.00 Fair CLR 68.9 42.3 38% 30.15 0.0
02 11:35 N 9 10.00 Fair CLR 67.8 43.5 42% 30.15 0.0
02 11:15 N 10 10.00 Fair CLR 67.3 43.2 42% 30.15 0.0
02 10:55 N 7 10.00 Fair CLR 66.7 45.5 47% 30.15 0.0
02 10:35 NE 9 10.00 Fair CLR 65.8 46 49% 30.15 0.0
02 10:15 N 9 10.00 Fair CLR 64 47.5 55% 30.14 0.0
02 09:55 Calm 10.00 Fair CLR 63.3 49.5 61% 30.14 0.0
02 09:35 Calm 10.00 Fair CLR 62.4 50 64% 30.14 0.0
02 09:15 N 9 10.00 Fair CLR 61.2 50.4 68% 30.13 0.0
02 08:55 N 8 10.00 Fair CLR 59.7 50.4 71% 30.12 0.0
02 08:35 Calm 10.00 Fair CLR 58.3 50.9 77% 30.11 0.0
02 08:15 Calm 10.00 Fair CLR 57 51.6 82% 30.1 0.0
02 07:55 Calm 10.00 Fair CLR 54.5 53.4 96% 30.09 0.0
02 07:35 Calm 10.00 Fair CLR 53.8 53.8 100% 30.08 0.0
02 07:15 Calm 10.00 Fair CLR 53.2 53.2 100% 30.08 0.0
02 06:55 Calm 10.00 Fair CLR 52.7 52.7 54.7 52.2 100% 30.07 0.0
02 06:35 Calm 10.00 Fair CLR 52.7 52.7 100% 30.06 0.0
02 06:15 Calm 10.00 Fair CLR 52.2 52.2 100% 30.06 0.0
02 05:55 Calm 10.00 Fair CLR 52.7 52.7 100% 30.04 0.0
02 05:35 Calm 10.00 Partly Cloudy SCT110 52.3 52.3 100% 30.03 0.0
02 05:15 Calm 10.00 Partly Cloudy SCT120 52.9 52.9 100% 30.03 0.0
02 04:55 Calm 10.00 Fair CLR 52.7 52.7 100% 30.03 0.0
02 04:35 Calm 10.00 Fair CLR 53.4 53.4 100% 30.03 0.0
02 04:15 Calm 10.00 Partly Cloudy SCT120 53.6 53.6 100% 30.03 0.0
02 03:55 Calm 10.00 Mostly Cloudy BKN120 53.8 53.8 100% 30.02 0.0
02 03:35 Calm 10.00 Partly Cloudy SCT110 54.1 54.1 100% 30.02 0.0
02 03:15 N 3 10.00 Overcast SCT085 OVC110 54.7 54.7 100% 30.02 0.0
02 02:55 Calm 10.00 Overcast BKN075 OVC110 54.5 54.5 100% 30.02 0.0
02 02:35 Calm 10.00 Overcast BKN075 OVC100 54.5 54.5 100% 30.01 0.0
02 02:15 Calm 10.00 Overcast SCT004 BKN075 OVC100 54.5 54.5 100% 30.02 0.0
02 01:55 Calm 10.00 Overcast BKN004 OVC065 54.1 54.1 100% 30.02 0.0
02 01:35 Calm 10.00 Overcast BKN004 BKN065 OVC095 54.1 54.1 100% 30.02 0.0
02 01:15 Calm 10.00 Overcast BKN004 OVC065 54.1 54.1 100% 30.02 0.0
02 00:55 Calm 10.00 Overcast SCT004 OVC065 54.1 54.1 54.7 52.2 100% 30.03 0.0
02 00:35 Calm 10.00 Overcast BKN004 OVC065 54.1 54.1 100% 30.03 0.0
02 00:15 Calm 10.00 Overcast BKN004 OVC065 54.5 54.5 100% 30.04 0.0
01 23:55 Calm 10.00 Overcast OVC055 54.3 54.3 100% 30.04 0.0
01 23:35 Calm 10.00 Overcast OVC055 54.3 54.3 100% 30.03 0.0
01 23:15 Calm 10.00 Light Drizzle SCT006 SCT013 OVC055 54.7 54.7 100% 30.03 0.0
01 22:55 Calm 10.00 Overcast OVC006 54.5 54.5 100% 30.05 0.0
01 22:35 Calm 10.00 Light Drizzle OVC006 54.5 54.5 100% 30.04 0.0
01 22:15 Calm 10.00 Light Rain SCT008 BKN012 OVC044 54 54 100% 30.03 0.0
01 21:55 Calm 10.00 Light Rain SCT014 OVC042 53.6 53.6 100% 30.03 0.0
01 21:35 Calm 10.00 Rain SCT014 OVC040 53.2 53.2 100% 30.04 0.0
01 21:15 Calm 10.00 Light Drizzle SCT014 SCT020 OVC040 53.6 53.6 100% 30.01 0.0
01 20:55 Calm 10.00 Light Rain BKN014 OVC020 53.1 53.1 100% 30 0.0
01 20:35 Calm 10.00 Overcast BKN016 OVC024 52.7 52.7 100% 30 0.0
01 20:15 Calm 10.00 Drizzle SCT012 BKN025 OVC035 52.7 52.7 100% 29.96 0.0
01 19:55 Calm 10.00 Drizzle SCT035 BKN047 BKN070 52.5 52.5 100% 29.96 0.0
01 19:35 E 3 10.00 Light Rain SCT033 BKN049 OVC090 52.2 52.2 100% 29.96 0.0
01 19:15 E 10 G 18 5.00 Light Rain SCT040 SCT070 OVC080 52.3 52.3 100% 29.98 0.0
01 18:55 E 13 G 20 5.00 Rain SCT016 BKN027 OVC075 53.6 53.6 55 53.4 100% 29.98 0.0
01 18:35 Calm 7.00 Light Rain SCT006 BKN017 OVC025 54.5 54.5 100% 29.98 0.0
01 18:15 Calm 5.00 Light Rain SCT006 OVC014 54.5 54.5 100% 29.98 0.0
01 17:55 Calm 5.00 Rain OVC019 54.5 54.5 100% 29.97 0.0
01 17:35 Calm 7.00 Light Rain OVC018 54.5 54.5 100% 29.98 0.0
01 17:15 Calm 7.00 Drizzle OVC019 54.5 54.5 100% 29.96 0.0
01 16:55 Calm 7.00 Rain OVC017 54.9 53.2 94% 29.96 0.0
01 16:35 Calm 10.00 Drizzle OVC019 54.1 53.4 97% 29.95 0.0
01 16:15 NE 10 10.00 Overcast OVC017 54.5 52.9 94% 29.91 0.0
01 15:55 E 10 G 20 10.00 Light Rain BKN015 OVC020 54.9 54 97% 29.89 0.0
01 15:35 E 13 G 21 10.00 Light Drizzle OVC013 54.9 54.5 99% 29.88 0.0
01 15:15 E 14 G 22 10.00 Overcast OVC011 54.5 54.5 100% 29.89 0.0
01 14:55 NE 14 G 20 10.00 Overcast BKN011 OVC017 54.5 54.5 100% 29.91 0.0
01 14:35 NE 14 10.00 Light Drizzle BKN013 OVC050 54.7 54.7 100% 29.94 0.0
01 14:15 E 12 10.00 Light Rain SCT014 BKN030 OVC050 54.1 54.1 100% 29.98 0.0
01 13:55 E 12 G 16 10.00 Drizzle SCT011 SCT016 OVC029 54 54 100% 29.99 0.0
01 13:35 NE 9 G 16 10.00 Drizzle SCT014 SCT024 OVC029 53.6 53.6 100% 30 0.0
01 13:15 NE 13 G 21 10.00 Drizzle SCT008 OVC014 53.6 53.6 100% 30.01 0.0
01 12:55 NE 9 G 18 10.00 Light Rain BKN010 OVC018 54.3 54.3 58.1 54.3 100% 30.01 0.0
01 12:35 NE 7 G 16 7.00 Light Rain BKN008 OVC015 54.5 54.5 100% 30.01 0.0
01 12:15 NE 7 7.00 Rain BKN008 BKN011 OVC018 54.7 54.7 100% 30.01 0.0
01 11:55 NE 8 7.00 Rain BKN008 OVC011 55 55 100% 30.02 0.0
01 11:35 NE 8 5.00 Rain OVC008 54.9 54.9 100% 30.03 0.0
01 11:15 Calm 7.00 Rain OVC008 55.4 55.4 100% 30.03 0.0
01 10:55 N 3 7.00 Rain OVC008 55.4 55.4 100% 30.01 0.0
01 10:35 NE 5 G 16 7.00 Rain BKN009 BKN014 OVC075 55.6 55.6 100% 30 0.0
01 10:15 NE 8 5.00 Rain BKN009 OVC014 55.4 55.4 100% 30.01 0.0
01 09:55 NE 7 5.00 Rain OVC009 55.6 55.6 100% 30 0.0
01 09:35 NE 8 7.00 Light Rain OVC008 55.6 55.6 100% 30.01 0.0
01 09:15 NE 7 5.00 Rain BKN008 OVC029 55.9 55.9 100% 30 0.0
01 08:55 NE 8 5.00 Rain OVC031 56.3 56.3 100% 30 0.0
01 08:35 Calm 5.00 Rain SCT009 OVC027 56.5 56.5 100% 29.99 0.0
01 08:15 Calm 7.00 Rain SCT009 OVC025 56.7 56.7 100% 30 0.0
01 07:55 Calm 5.00 Light Rain SCT009 OVC025 57.2 57.2 100% 30 0.0
01 07:35 Calm 7.00 Light Rain OVC025 57.9 56.8 96% 29.99 0.0
01 07:15 Calm 10.00 Rain OVC025 58.1 56.3 94% 29.99 0.0
01 06:55 Calm 10.00 Drizzle OVC025 58.1 57 58.6 57.7 96% 29.97 0.0
01 06:35 Calm 10.00 Light Drizzle OVC023 58.1 57.2 97% 29.96 0.0
01 06:15 Calm 10.00 Overcast OVC023 58.3 57.4 97% 29.96 0.0
01 05:55 Calm 10.00 Overcast OVC021 58.1 57.2 97% 29.95 0.0
01 05:35 Calm 10.00 Overcast OVC021 58.3 57 96% 29.94 0.0
01 05:15 N 7 10.00 Overcast OVC021 58.5 56.8 94% 29.93 0.0
01 04:55 Calm 10.00 Overcast OVC021 58.3 57 96% 29.93 0.0
01 04:35 Calm 10.00 Overcast OVC021 58.5 57.4 96% 29.92 0.0
01 04:15 Calm 10.00 Overcast OVC021 58.6 58.1 98% 29.94 0.0
01 03:55 Calm 10.00 Overcast OVC021 58.3 58.1 99% 29.93 0.0
01 03:35 Calm 10.00 Overcast OVC021 58.1 58.1 100% 29.94 0.0
01 03:15 Calm 10.00 Overcast OVC021 58.1 58.1 100% 29.93 0.0
01 02:55 Calm 10.00 Overcast OVC021 57.9 57.9 100% 29.94 0.0
01 02:35 Calm 10.00 Overcast OVC021 58.1 58.1 100% 29.94 0.0
01 02:15 Calm 10.00 Overcast OVC021 58.1 58.1 100% 29.94 0.0
01 01:55 Calm 10.00 Drizzle OVC023 58.3 58.3 100% 29.94 0.0
01 01:35 Calm 10.00 Light Rain BKN018 OVC024 58.6 58.6 100% 29.97 0.0
01 01:15 Calm 10.00 Overcast SCT011 OVC016 58.5 58.5 100% 29.96 0.0
01 00:55 Calm 10.00 Overcast BKN009 OVC016 58.8 58.8 61.7 58.6 100% 29.94 0.0
01 00:35 Calm 10.00 Overcast BKN009 OVC014 59 59 100% 29.96 0.0
01 00:15 Calm 10.00 Light Drizzle SCT007 OVC014 59 59 100% 29.95 0.0
30 23:55 Calm 10.00 Light Drizzle OVC014 59.2 59.2 100% 29.94 0.0
30 23:35 Calm 10.00 Drizzle OVC012 59.2 59.2 100% 29.98 0.0
30 23:15 Calm 10.00 Light Drizzle OVC010 59.4 59.4 100% 30 0.0
30 22:55 Calm 10.00 Light Drizzle OVC010 59.9 59.9 100% 29.97 0.0
30 22:35 Calm 10.00 Rain OVC008 59.9 59.9 100% 29.96 0.0
30 22:15 Calm 7.00 Light Rain BKN006 OVC009 60.4 60.4 100% 29.95 0.0
30 21:55 Calm 4.00 Rain BKN009 BKN035 OVC075 60.4 60.4 100% 29.95 0.0
30 21:35 Calm 7.00 Light Rain BKN013 BKN029 OVC090 60.4 60.4 100% 29.94 0.0
30 21:15 Calm 10.00 Light Rain BKN013 BKN028 OVC039 60.8 60.8 100% 29.95 0.0
30 20:55 Calm 7.00 Light Rain BKN013 BKN030 OVC095 61.2 61.2 100% 29.95 0.0
30 20:35 Calm 10.00 Mostly Cloudy SCT013 SCT029 BKN120 61.2 60.8 99% 29.93 0.0
30 20:15 Calm 10.00 Fair CLR 61.2 60.8 99% 29.89 0.0
30 19:55 Calm 10.00 Partly Cloudy SCT110 61 60.8 99% 29.88 0.0
30 19:35 Calm 10.00 Drizzle SCT080 OVC110 61.2 60.4 98% 29.89 0.0
30 19:15 Calm 10.00 Mostly Cloudy BKN110 61.7 60.1 94% 29.9 0.0
30 18:55 Calm 10.00 Partly Cloudy SCT120 61.3 60.3 64 61 96% 29.89 0.0
30 18:35 Calm 10.00 Overcast SCT012 OVC120 61.2 60.4 98% 29.88 0.0
30 18:15 Calm 10.00 Mostly Cloudy SCT012 SCT033 BKN110 61.2 61.2 100% 29.9 0.0
30 17:55 Calm 10.00 Light Drizzle SCT014 BKN033 OVC110 61.2 61.2 100% 29.9 0.0
30 17:35 Calm 7.00 Drizzle SCT014 BKN033 OVC110 61.3 60.6 98% 29.93 0.0
30 17:15 Calm 10.00 Light Drizzle BKN012 BKN022 OVC110 61.3 60.8 98% 29.92 0.0
30 16:55 NE 7 10.00 Overcast BKN010 OVC021 61.7 61.7 100% 29.9 0.0
30 16:35 N 8 10.00 Overcast BKN008 BKN011 OVC021 61.9 61.9 100% 29.91 0.0
30 16:15 N 8 10.00 Overcast BKN008 BKN011 OVC015 61.7 61.7 100% 29.92 0.0
30 15:55 NE 8 10.00 Drizzle BKN006 OVC013 62.1 62.1 100% 29.91 0.0
30 15:35 N 8 10.00 Light Rain BKN009 OVC020 62.8 62.8 100% 29.93 0.0
30 15:15 Calm 5.00 Rain OVC013 62.8 62.8 100% 29.94 0.0
30 14:55 Calm 3.00 Rain OVC013 62.8 62.6 99% 29.95 0.0
30 14:35 Calm 7.00 Thunderstorm Light Drizzle OVC013 63.3 62.4 97% 29.94 0.0
30 14:15 NE 7 10.00 Thunderstorm Light Rain in Vicinity OVC011 63.5 62.2 96% 29.93 0.0
30 13:55 Calm 10.00 Overcast OVC011 63.7 61.5 93% 29.93 0.0
30 13:35 NE 7 10.00 Thunderstorm in Vicinity OVC011 63.5 61.7 94% 29.92 0.0
30 13:15 NE 10 10.00 Overcast OVC011 63.7 61.7 93% 29.91 0.0
30 12:55 E 8 G 17 10.00 Overcast OVC011 64.2 61.7 64.4 61.3 92% 29.92 0.0
30 12:35 E 12 G 16 10.00 Overcast OVC011 63.5 61.5 93% 29.93 0.0
30 12:15 E 7 10.00 Overcast OVC011 63.7 61.7 93% 29.94 0.0
30 11:55 E 8 10.00 Overcast OVC011 63.1 61.7 95% 29.95 0.0
30 11:35 E 12 G 17 10.00 Overcast OVC011 62.4 61.7 98% 29.95 0.0
30 11:15 Calm 10.00 Overcast BKN011 OVC016 62.2 62.2 100% 29.95 0.0
30 10:55 E 8 G 16 10.00 Overcast OVC010 62.1 62.1 100% 29.95 0.0
30 10:35 NE 8 10.00 Overcast OVC010 62.1 62.1 100% 29.95 0.0
30 10:15 E 8 10.00 Overcast OVC008 62.2 62.2 100% 29.94 0.0
30 09:55 Calm 10.00 Overcast OVC008 62.1 62.1 100% 29.94 0.0
30 09:35 Calm 7.00 Overcast OVC008 61.7 61.7 100% 29.95 0.0
30 09:15 Calm 5.00 Fog/Mist OVC008 61.7 61.7 100% 29.94 0.0
30 08:55 E 3 10.00 Overcast OVC008 61.3 61.3 100% 29.94 0.0
30 08:35 Calm 10.00 Overcast OVC006 61.7 61.7 100% 29.93 0.0
30 08:15 NE 9 7.00 Rain BKN006 OVC013 61.9 61.9 100% 29.93 0.0
30 07:55 E 9 7.00 Light Rain BKN006 OVC013 62.1 62.1 100% 29.92 0.0
30 07:35 NE 8 10.00 Overcast OVC006 62.6 62.6 100% 29.92 0.0
30 07:15 NE 9 10.00 Overcast OVC006 62.6 62.6 100% 29.91 0.0
30 06:55 Calm 10.00 Overcast OVC006 62.6 62.6 66.6 62.6 100% 29.9 0.0
30 06:35 Calm 5.00 Thunderstorm Light Rain in Vicinity BKN006 BKN010 OVC041 62.6 62.6 100% 29.9 0.0
30 06:15 Calm 5.00 Thunderstorm Rain BKN006 BKN013 OVC041 62.8 62.8 100% 29.89 0.0
30 05:55 Calm 2.50 Thunderstorm Heavy Rain OVC004 63 63 100% 29.91 0.0
30 05:35 Calm 7.00 Thunderstorm Rain in Vicinity OVC006 63.5 63.5 100% 29.88 0.0
30 05:15 NE 10 5.00 Thunderstorm in Vicinity Fog/Mist OVC004 63.7 63.7 100% 29.89 0.0
30 04:55 NE 5 5.00 Fog/Mist OVC004 63.9 63.9 100% 29.89 0.0
30 04:35 NE 8 5.00 Light Drizzle OVC004 64 64 100% 29.89 0.0
30 04:15 N 6 3.00 Thunderstorm Drizzle OVC004 64.8 64.8 100% 29.89 0.0
30 03:55 N 8 2.50 Heavy Drizzle OVC004 65.3 65.3 100% 29.88 0.0
30 03:35 Calm 5.00 Fog/Mist OVC004 66.2 66.2 100% 29.89 0.0
30 03:15 Calm 7.00 Overcast OVC004 66.4 66.4 100% 29.89 0.0
30 02:55 Calm 7.00 Overcast OVC006 66.4 66.4 100% 29.89 0.0
30 02:35 Calm 7.00 Overcast BKN006 BKN011 OVC016 66.2 66.2 100% 29.89 0.0
30 02:15 Calm 10.00 Overcast SCT006 OVC018 66.6 66.6 100% 29.91 0.0
30 01:55 Calm 10.00 Overcast OVC018 66.4 66.4 100% 29.92 0.0
30 01:35 Calm 10.00 Overcast OVC018 66.4 66.4 100% 29.92 0.0
30 01:15 Calm 10.00 Overcast OVC018 66.4 66.4 100% 29.93 0.0
Date Time (cdt) Wind (mph) Vis. (mi.) Weather Sky Cond. Air Dwpt Max. Min. Relative Humidity Wind Chill (°F) Heat Index (°F) altimeter (in) sea level (mb) 1 hr 3 hr 6 hr
6 hour
Temperature (ºF) Pressure Precipitation (in)